createdAt,value
2017-05-12T00:02:04.734Z,2.40
2017-05-12T00:04:31.524Z,2.12
2017-05-12T00:06:58.189Z,1.86
2017-05-12T00:09:24.890Z,1.96
2017-05-12T00:11:51.621Z,2.28
2017-05-12T00:14:19.053Z,2.14
2017-05-12T00:16:45.737Z,2.02
2017-05-12T00:19:12.401Z,1.80
2017-05-12T00:21:39.093Z,2.10
2017-05-12T00:24:05.804Z,1.54
2017-05-12T00:26:32.493Z,1.74
2017-05-12T00:28:59.182Z,1.92
2017-05-12T00:31:25.887Z,2.14
2017-05-12T00:33:52.586Z,2.12
2017-05-12T00:36:20.015Z,2.24
2017-05-12T00:38:46.702Z,2.00
2017-05-12T00:41:13.396Z,1.98
2017-05-12T00:43:40.077Z,2.36
2017-05-12T00:46:06.801Z,1.72
2017-05-12T00:48:34.219Z,1.98
2017-05-12T00:51:00.905Z,1.90
2017-05-12T00:53:27.576Z,2.08
2017-05-12T00:55:54.262Z,2.00
2017-05-12T00:58:21.729Z,2.20
2017-05-12T01:00:49.171Z,2.16
2017-05-12T01:03:15.843Z,2.10
2017-05-12T01:05:42.571Z,2.26
2017-05-12T01:08:09.247Z,1.84
2017-05-12T01:10:35.952Z,1.90
2017-05-12T01:13:02.641Z,1.68
2017-05-12T01:15:29.329Z,2.14
2017-05-12T01:17:56.769Z,2.04
2017-05-12T01:20:24.210Z,1.86
2017-05-12T01:22:50.927Z,1.96
2017-05-12T01:25:17.605Z,1.72
2017-05-12T01:27:45.077Z,2.16
2017-05-12T01:30:12.515Z,1.70
2017-05-12T01:32:39.236Z,1.88
2017-05-12T01:35:05.968Z,1.74
2017-05-12T01:37:32.654Z,1.72
2017-05-12T01:40:00.085Z,2.02
2017-05-12T01:42:26.799Z,2.54
2017-05-12T01:44:53.514Z,2.02
2017-05-12T01:47:20.216Z,2.08
2017-05-12T01:49:46.922Z,1.92
2017-05-12T01:52:13.625Z,1.94
2017-05-12T01:54:40.338Z,1.68
2017-05-12T01:57:07.784Z,2.02
2017-05-12T01:59:34.487Z,1.94
2017-05-12T02:02:01.207Z,1.98
2017-05-12T02:04:27.877Z,1.62
2017-05-12T02:06:54.594Z,2.14
2017-05-12T02:09:21.324Z,2.08
2017-05-12T02:11:48.087Z,1.80
2017-05-12T02:14:14.771Z,2.38
2017-05-12T02:16:42.246Z,1.72
2017-05-12T02:19:09.003Z,2.08
2017-05-12T02:21:35.698Z,1.66
2017-05-12T02:24:02.396Z,1.86
2017-05-12T02:26:29.099Z,2.34
2017-05-12T02:28:56.596Z,2.28
2017-05-12T02:31:23.293Z,1.94
2017-05-12T02:33:49.981Z,1.88
2017-05-12T02:36:16.705Z,1.76
2017-05-12T02:38:43.398Z,2.06
2017-05-12T02:41:10.077Z,1.88
2017-05-12T02:43:36.769Z,2.00
2017-05-12T02:46:03.435Z,1.98
2017-05-12T02:48:30.869Z,1.80
2017-05-12T02:50:57.551Z,2.22
2017-05-12T02:53:24.240Z,1.98
2017-05-12T02:55:50.915Z,1.82
2017-05-12T02:58:18.342Z,1.82
2017-05-12T03:00:45.017Z,1.78
2017-05-12T03:03:11.759Z,1.76
2017-05-12T03:05:38.436Z,1.68
2017-05-12T03:08:05.140Z,2.00
2017-05-12T03:10:31.871Z,2.10
2017-05-12T03:12:59.399Z,1.60
2017-05-12T03:15:26.112Z,1.70
2017-05-12T03:17:52.781Z,1.78
2017-05-12T03:20:19.528Z,2.10
2017-05-12T03:22:46.218Z,2.08
2017-05-12T03:25:12.913Z,1.82
2017-05-12T03:27:39.579Z,2.14
2017-05-12T03:30:06.285Z,1.80
2017-05-12T03:32:32.965Z,2.00
2017-05-12T03:34:59.701Z,2.04
2017-05-12T03:37:26.438Z,1.92
2017-05-12T03:39:53.126Z,1.82
2017-05-12T03:42:19.807Z,2.10
2017-05-12T03:44:46.501Z,2.48
2017-05-12T03:47:13.172Z,1.70
2017-05-12T03:49:40.578Z,2.16
2017-05-12T03:52:07.299Z,2.22
2017-05-12T03:54:33.969Z,1.58
2017-05-12T03:57:00.697Z,2.38
2017-05-12T03:59:27.429Z,2.64
2017-05-12T04:01:54.125Z,2.10
2017-05-12T04:04:21.545Z,1.84
2017-05-12T04:06:48.263Z,2.08
2017-05-12T04:09:14.933Z,1.92
2017-05-12T04:11:41.649Z,1.90
2017-05-12T04:14:08.378Z,1.70
2017-05-12T04:16:35.081Z,2.38
2017-05-12T04:19:01.773Z,1.90
2017-05-12T04:21:28.477Z,1.88
2017-05-12T04:23:55.154Z,1.94
2017-05-12T04:26:21.857Z,1.82
2017-05-12T04:28:48.537Z,1.94
2017-05-12T04:31:15.218Z,2.04
2017-05-12T04:33:41.950Z,1.70
2017-05-12T04:36:08.634Z,2.32
2017-05-12T04:38:35.337Z,1.86
2017-05-12T04:41:02.033Z,1.90
2017-05-12T04:43:28.775Z,2.10
2017-05-12T04:45:55.474Z,1.72
2017-05-12T04:48:22.285Z,2.10
2017-05-12T04:50:48.978Z,2.02
2017-05-12T04:53:15.671Z,2.16
2017-05-12T04:55:42.394Z,1.74
2017-05-12T04:58:09.101Z,1.96
2017-05-12T05:00:35.781Z,1.72
2017-05-12T05:03:02.576Z,1.80
2017-05-12T05:05:29.261Z,2.92
2017-05-12T05:07:56.697Z,1.80
2017-05-12T05:10:23.388Z,1.80
2017-05-12T05:12:50.086Z,2.12
2017-05-12T05:15:17.513Z,1.38
2017-05-12T05:17:44.202Z,1.94
2017-05-12T05:20:10.865Z,1.74
2017-05-12T05:22:37.555Z,1.84
2017-05-12T05:25:04.259Z,1.82
2017-05-12T05:27:30.970Z,2.06
2017-05-12T05:29:57.649Z,1.66
2017-05-12T05:32:24.317Z,1.68
2017-05-12T05:34:51.026Z,2.40
2017-05-12T05:37:17.701Z,1.68
2017-05-12T05:39:44.476Z,1.80
2017-05-12T05:42:11.279Z,1.50
2017-05-12T05:44:38.080Z,2.00
2017-05-12T05:47:04.750Z,1.98
2017-05-12T05:49:31.450Z,1.98
2017-05-12T05:51:58.213Z,1.66
2017-05-12T05:54:24.901Z,1.60
2017-05-12T05:56:51.569Z,1.72
2017-05-12T05:59:18.261Z,1.90
2017-05-12T06:01:44.965Z,2.04
2017-05-12T06:04:11.680Z,2.08
2017-05-12T06:06:38.409Z,1.62
2017-05-12T06:09:05.102Z,1.80
2017-05-12T06:11:31.877Z,2.02
2017-05-12T06:13:58.549Z,1.60
2017-05-12T06:16:25.243Z,2.00
2017-05-12T06:18:51.925Z,1.80
2017-05-12T06:21:18.601Z,2.22
2017-05-12T06:23:45.272Z,1.94
2017-05-12T06:26:12.022Z,1.82
2017-05-12T06:28:38.697Z,1.98
2017-05-12T06:31:05.497Z,1.70
2017-05-12T06:33:32.210Z,1.88
2017-05-12T06:35:58.893Z,2.42
2017-05-12T06:38:25.569Z,2.08
2017-05-12T06:40:52.298Z,1.76
2017-05-12T06:43:18.997Z,1.80
2017-05-12T06:45:45.670Z,1.68
2017-05-12T06:48:12.380Z,1.88
2017-05-12T06:50:39.113Z,1.90
2017-05-12T06:53:05.805Z,1.88
2017-05-12T06:55:33.221Z,1.92
2017-05-12T06:57:59.906Z,2.08
2017-05-12T07:00:26.569Z,1.78
2017-05-12T07:02:53.254Z,1.80
2017-05-12T07:05:19.917Z,1.84
2017-05-12T07:07:46.605Z,1.84
2017-05-12T07:10:13.286Z,1.92
2017-05-12T07:12:39.991Z,1.72
2017-05-12T07:15:06.797Z,2.22
2017-05-12T07:17:33.519Z,1.42
2017-05-12T07:20:00.942Z,1.82
2017-05-12T07:22:27.659Z,1.68
2017-05-12T07:24:54.350Z,2.28
2017-05-12T07:27:21.117Z,1.72
2017-05-12T07:29:47.785Z,1.40
2017-05-12T07:32:14.467Z,1.86
2017-05-12T07:34:41.177Z,1.72
2017-05-12T07:37:07.850Z,1.90
2017-05-12T07:39:35.297Z,1.68
2017-05-12T07:42:02.013Z,1.88
2017-05-12T07:44:28.724Z,1.64
2017-05-12T07:46:55.385Z,1.70
2017-05-12T07:49:22.121Z,1.84
2017-05-12T07:51:48.818Z,1.96
2017-05-12T07:54:16.279Z,2.10
2017-05-12T07:56:42.987Z,1.82
2017-05-12T07:59:09.702Z,1.82
2017-05-12T08:01:36.557Z,1.70
2017-05-12T08:04:03.229Z,1.62
2017-05-12T08:06:30.689Z,1.70
2017-05-12T08:08:58.200Z,1.90
2017-05-12T08:11:24.909Z,1.92
2017-05-12T08:13:51.593Z,2.88
2017-05-12T08:16:18.281Z,1.80
2017-05-12T08:38:44.417Z,2.22
2017-05-12T08:41:11.143Z,1.68
2017-05-12T08:43:37.900Z,1.62
2017-05-12T08:46:04.587Z,2.02
2017-05-12T08:48:31.288Z,1.94
2017-05-12T08:50:57.994Z,1.58
2017-05-12T08:53:24.678Z,1.90
2017-05-12T08:55:51.393Z,1.84
2017-05-12T08:58:18.842Z,1.68
2017-05-12T09:00:46.266Z,1.78
2017-05-12T09:03:12.962Z,2.00
2017-05-12T09:05:39.670Z,2.28
2017-05-12T09:08:06.379Z,1.80
2017-05-12T09:10:33.146Z,1.86
2017-05-12T09:12:59.848Z,2.06
2017-05-12T09:15:26.772Z,1.94
2017-05-12T09:17:53.454Z,2.26
2017-05-12T09:20:20.162Z,1.70
2017-05-12T09:22:46.848Z,1.70
2017-05-12T09:25:13.526Z,1.90
2017-05-12T09:27:40.261Z,1.86
2017-05-12T09:30:07.672Z,2.02
2017-05-12T09:32:34.445Z,1.74
2017-05-12T09:35:01.878Z,1.78
2017-05-12T09:37:28.576Z,1.98
2017-05-12T09:39:55.290Z,1.88
2017-05-12T09:42:21.989Z,1.70
2017-05-12T09:44:49.043Z,2.02
2017-05-12T09:47:15.736Z,2.10
2017-05-12T09:49:42.462Z,1.80
2017-05-12T09:52:09.157Z,1.80
2017-05-12T09:54:35.886Z,2.44
2017-05-12T09:57:02.599Z,2.00
2017-05-12T09:59:29.410Z,2.12
2017-05-12T10:01:56.331Z,1.78
2017-05-12T10:04:23.059Z,1.80
2017-05-12T10:06:49.784Z,1.80
2017-05-12T10:09:16.487Z,1.88
2017-05-12T10:11:43.187Z,1.86
2017-05-12T10:14:09.989Z,2.06
2017-05-12T10:16:36.775Z,1.98
2017-05-12T10:19:04.266Z,1.60
2017-05-12T10:21:31.015Z,2.00
2017-05-12T10:23:57.718Z,2.26
2017-05-12T10:26:24.452Z,2.26
2017-05-12T10:28:51.921Z,1.98
2017-05-12T10:31:18.690Z,1.84
2017-05-12T10:33:45.481Z,2.62
2017-05-12T10:36:12.195Z,1.94
2017-05-12T10:38:38.889Z,1.62
2017-05-12T10:41:05.639Z,1.66
2017-05-12T10:43:32.345Z,1.86
2017-05-12T10:45:59.059Z,1.70
2017-05-12T10:48:25.734Z,1.70
2017-05-12T10:50:52.476Z,1.60
2017-05-12T10:53:19.157Z,1.88
2017-05-12T10:55:45.874Z,1.74
2017-05-12T10:58:12.582Z,1.86
2017-05-12T11:00:39.253Z,2.38
2017-05-12T11:03:05.931Z,2.16
2017-05-12T11:05:32.654Z,2.28
2017-05-12T11:07:59.352Z,2.12
2017-05-12T11:10:26.065Z,2.08
2017-05-12T11:12:52.745Z,1.88
2017-05-12T11:15:19.451Z,1.84
2017-05-12T11:17:46.154Z,1.82
2017-05-12T11:20:12.848Z,2.10
2017-05-12T11:22:39.570Z,1.78
2017-05-12T11:25:06.243Z,1.78
2017-05-12T11:27:32.934Z,1.70
2017-05-12T11:29:59.674Z,1.96
2017-05-12T11:32:26.446Z,2.24
2017-05-12T11:34:53.158Z,2.20
2017-05-12T11:37:19.854Z,2.12
2017-05-12T11:39:46.567Z,1.80
2017-05-12T11:42:14.038Z,2.12
2017-05-12T11:44:40.722Z,2.14
2017-05-12T11:47:07.450Z,1.98
2017-05-12T11:49:34.150Z,1.60
2017-05-12T11:52:00.837Z,1.66
2017-05-12T11:54:27.546Z,2.06
2017-05-12T11:56:54.246Z,1.70
2017-05-12T11:59:20.987Z,2.52
2017-05-12T12:01:47.683Z,2.36
2017-05-12T12:04:14.357Z,1.96
2017-05-12T12:06:41.060Z,2.24
2017-05-12T12:09:07.755Z,1.92
2017-05-12T12:11:35.259Z,2.30
2017-05-12T12:14:01.971Z,2.06
2017-05-12T12:16:28.673Z,1.90
2017-05-12T12:18:55.363Z,1.88
2017-05-12T12:21:22.046Z,1.88
2017-05-12T12:23:48.768Z,2.52
2017-05-12T12:26:15.498Z,2.00
2017-05-12T12:28:42.209Z,1.72
2017-05-12T12:31:08.926Z,1.78
2017-05-12T12:33:43.345Z,2.46
2017-05-12T12:36:10.027Z,2.10
2017-05-12T12:38:36.752Z,2.28
2017-05-12T12:41:03.482Z,2.10
2017-05-12T12:43:30.162Z,2.18
2017-05-12T12:45:56.925Z,2.22
2017-05-12T12:48:23.606Z,1.90
2017-05-12T12:50:50.306Z,1.70
2017-05-12T12:53:17.061Z,2.56
2017-05-12T12:55:44.493Z,2.28
2017-05-12T12:58:11.210Z,2.06
2017-05-12T13:00:37.919Z,2.18
2017-05-12T13:03:04.750Z,2.22
2017-05-12T13:05:31.542Z,2.20
2017-05-12T13:07:58.242Z,2.20
2017-05-12T13:10:24.984Z,2.06
2017-05-12T13:12:51.698Z,1.96
2017-05-12T13:15:19.139Z,2.54
2017-05-12T13:17:45.855Z,2.00
2017-05-12T13:20:12.560Z,2.32
2017-05-12T13:22:39.270Z,1.80
2017-05-12T13:25:06.711Z,1.94
2017-05-12T13:27:33.398Z,2.22
2017-05-12T13:30:00.114Z,2.02
2017-05-12T13:32:26.798Z,2.30
2017-05-12T13:34:53.485Z,2.50
2017-05-12T13:37:20.927Z,1.62
2017-05-12T13:39:47.630Z,1.98
2017-05-12T13:42:14.414Z,2.26
2017-05-12T13:44:41.148Z,1.90
2017-05-12T13:47:07.845Z,1.92
2017-05-12T13:49:34.546Z,2.02
2017-05-12T13:52:01.255Z,2.38
2017-05-12T13:54:27.935Z,2.00
2017-05-12T13:56:54.630Z,1.78
2017-05-12T13:59:21.321Z,2.20
2017-05-12T14:01:48.013Z,2.00
2017-05-12T14:04:14.718Z,2.06
2017-05-12T14:06:41.435Z,2.40
2017-05-12T14:09:08.149Z,2.16
2017-05-12T14:11:34.830Z,2.26
2017-05-12T14:14:01.526Z,2.28
2017-05-12T14:16:28.220Z,2.64
2017-05-12T14:18:54.906Z,1.90
2017-05-12T14:21:21.639Z,1.74
2017-05-12T14:23:49.069Z,2.20
2017-05-12T14:26:15.782Z,2.14
2017-05-12T14:28:42.481Z,2.76
2017-05-12T14:31:09.174Z,1.74
2017-05-12T14:33:35.891Z,2.00
2017-05-12T14:36:02.575Z,1.70
2017-05-12T14:38:29.255Z,2.00
2017-05-12T14:40:55.992Z,1.76
2017-05-12T14:43:22.682Z,2.64
2017-05-12T14:45:49.445Z,2.28
2017-05-12T14:48:16.914Z,1.90
2017-05-12T14:50:44.387Z,1.94
2017-05-12T14:53:11.162Z,2.12
2017-05-12T14:55:37.850Z,2.00
2017-05-12T14:58:04.567Z,2.40
2017-05-12T15:00:32.065Z,2.28
2017-05-12T15:02:58.814Z,1.98
2017-05-12T15:05:25.524Z,2.26
2017-05-12T15:07:52.341Z,1.70
2017-05-12T15:10:19.093Z,1.84
2017-05-12T15:12:45.790Z,2.12
2017-05-12T15:15:12.825Z,2.00
2017-05-12T15:17:39.602Z,2.28
2017-05-12T15:20:06.345Z,1.94
2017-05-12T15:22:33.058Z,2.20
2017-05-12T15:24:59.750Z,1.62
2017-05-12T15:27:27.258Z,1.98
2017-05-12T15:29:53.957Z,1.76
2017-05-12T15:32:20.654Z,1.96
2017-05-12T15:34:47.584Z,1.96
2017-05-12T15:37:14.286Z,1.90
2017-05-12T15:39:41.000Z,1.92
2017-05-12T15:42:08.426Z,2.28
2017-05-12T15:44:35.126Z,2.24
2017-05-12T15:47:01.852Z,1.94
2017-05-12T15:49:28.562Z,2.02
2017-05-12T15:51:55.239Z,2.34
2017-05-12T15:54:21.942Z,2.20
2017-05-12T15:56:48.623Z,2.24
2017-05-12T15:59:15.374Z,2.30
2017-05-12T16:01:42.170Z,2.10
2017-05-12T16:04:08.865Z,1.80
2017-05-12T16:06:35.542Z,1.90
2017-05-12T16:09:02.274Z,1.82
2017-05-12T16:11:28.965Z,1.80
2017-05-12T16:13:55.759Z,1.58
2017-05-12T16:16:22.510Z,2.34
2017-05-12T16:18:49.200Z,1.94
2017-05-12T16:21:15.897Z,2.14
2017-05-12T16:23:43.370Z,3.06
2017-05-12T16:26:10.078Z,2.06
2017-05-12T16:28:37.196Z,2.26
2017-05-12T16:31:03.907Z,2.00
2017-05-12T16:33:30.598Z,2.22
2017-05-12T16:35:57.274Z,2.00
2017-05-12T16:38:23.971Z,1.98
2017-05-12T16:40:50.662Z,2.10
2017-05-12T16:43:17.391Z,1.86
2017-05-12T16:45:44.118Z,2.00
2017-05-12T16:48:11.551Z,1.90
2017-05-12T16:50:38.308Z,1.82
2017-05-12T16:53:05.752Z,1.82
2017-05-12T16:55:32.467Z,1.80
2017-05-12T16:57:59.162Z,2.44
2017-05-12T17:00:25.846Z,1.98
2017-05-12T17:02:52.550Z,1.64
2017-05-12T17:05:19.260Z,1.52
2017-05-12T17:07:46.731Z,1.70
2017-05-12T17:10:13.420Z,2.18
2017-05-12T17:12:40.114Z,1.90
2017-05-12T17:15:06.868Z,1.86
2017-05-12T17:17:33.582Z,2.16
2017-05-12T17:20:01.075Z,1.84
2017-05-12T17:22:27.811Z,1.70
2017-05-12T17:24:54.505Z,2.32
2017-05-12T17:27:21.256Z,1.94
2017-05-12T17:29:47.978Z,2.12
2017-05-12T17:32:14.729Z,1.90
2017-05-12T17:34:41.400Z,1.82
2017-05-12T17:37:08.113Z,1.66
2017-05-12T17:39:35.547Z,1.72
2017-05-12T17:42:02.230Z,1.80
2017-05-12T17:44:28.942Z,1.84
2017-05-12T17:46:55.629Z,1.84
2017-05-12T17:49:22.378Z,2.22
2017-05-12T17:51:49.070Z,1.72
2017-05-12T17:54:15.762Z,2.08
2017-05-12T17:56:42.483Z,1.66
2017-05-12T17:59:09.166Z,1.82
2017-05-12T18:01:35.870Z,1.78
2017-05-12T18:04:02.574Z,1.86
2017-05-12T18:06:29.273Z,2.04
2017-05-12T18:08:56.015Z,2.00
2017-05-12T18:11:22.725Z,1.92
2017-05-12T18:13:49.418Z,1.92
2017-05-12T18:16:16.874Z,1.60
2017-05-12T18:18:43.579Z,1.70
2017-05-12T18:21:10.291Z,1.64
2017-05-12T18:23:36.985Z,1.88
2017-05-12T18:26:03.677Z,1.66
2017-05-12T18:28:30.386Z,2.22
2017-05-12T18:30:57.087Z,2.02
2017-05-12T18:33:23.806Z,1.82
2017-05-12T18:35:50.527Z,1.84
2017-05-12T18:38:17.217Z,1.90
2017-05-12T18:40:44.682Z,1.92
2017-05-12T18:43:12.199Z,1.92
2017-05-12T18:45:38.952Z,2.14
2017-05-12T18:48:05.788Z,2.32
2017-05-12T18:50:32.489Z,1.70
2017-05-12T18:52:59.336Z,2.12
2017-05-12T18:55:26.015Z,1.58
2017-05-12T18:57:52.718Z,2.28
2017-05-12T19:00:19.564Z,2.16
2017-05-12T19:02:46.281Z,1.98
2017-05-12T19:05:13.002Z,1.50
2017-05-12T19:07:39.696Z,1.88
2017-05-12T19:10:06.386Z,1.82
2017-05-12T19:12:33.162Z,1.92
2017-05-12T19:14:59.864Z,1.74
2017-05-12T19:17:27.309Z,1.74
2017-05-12T19:19:54.858Z,5.94
2017-05-12T19:22:21.722Z,4.40
2017-05-12T19:24:48.410Z,10.82
2017-05-12T19:27:15.158Z,7.24
2017-05-12T19:29:41.890Z,5.84
2017-05-12T19:32:08.742Z,5.84
2017-05-12T19:34:35.450Z,3.86
2017-05-12T19:37:02.151Z,4.02
2017-05-12T19:39:29.594Z,3.88
2017-05-12T19:41:56.278Z,3.78
2017-05-12T19:44:22.974Z,4.46
2017-05-12T19:46:49.690Z,4.20
2017-05-12T19:49:16.370Z,4.66
2017-05-12T19:51:43.070Z,4.48
2017-05-12T19:54:09.956Z,4.40
2017-05-12T19:56:36.666Z,4.32
2017-05-12T19:59:03.353Z,4.32
2017-05-12T20:01:30.046Z,4.34
2017-05-12T20:03:56.758Z,4.78
2017-05-12T20:06:23.451Z,6.94
2017-05-12T20:08:50.148Z,4.48
2017-05-12T20:11:16.846Z,5.20
2017-05-12T20:13:43.546Z,3.66
2017-05-12T20:16:10.264Z,4.30
2017-05-12T20:18:36.942Z,5.66
2017-05-12T20:21:03.658Z,5.82
2017-05-12T20:23:30.337Z,4.74
2017-05-12T20:25:57.025Z,5.54
2017-05-12T20:28:30.611Z,4.88
2017-05-12T20:30:57.295Z,5.08
2017-05-12T20:33:23.991Z,4.60
2017-05-12T20:35:50.668Z,4.60
2017-05-12T20:38:17.379Z,4.50
2017-05-12T20:40:44.055Z,5.26
2017-05-12T20:43:10.748Z,5.22
2017-05-12T20:45:37.472Z,4.10
2017-05-12T20:48:04.156Z,4.40
2017-05-12T20:50:30.864Z,5.80
2017-05-12T20:52:57.546Z,4.74
2017-05-12T20:55:24.226Z,4.42
2017-05-12T20:57:50.914Z,6.10
2017-05-12T21:00:18.339Z,4.78
2017-05-12T21:02:45.049Z,4.24
2017-05-12T21:05:11.734Z,4.44
2017-05-12T21:07:38.416Z,4.24
2017-05-12T21:10:05.110Z,3.62
2017-05-12T21:12:31.802Z,4.08
2017-05-12T21:14:58.512Z,4.78
2017-05-12T21:17:26.531Z,3.92
2017-05-12T21:19:54.187Z,3.48
2017-05-12T21:22:22.552Z,3.44
2017-05-12T21:24:50.845Z,4.24
2017-05-12T21:27:17.673Z,4.38
2017-05-12T21:29:44.432Z,4.80
2017-05-12T21:32:11.131Z,5.14
2017-05-12T21:34:37.826Z,5.28
2017-05-12T21:37:04.506Z,5.92
2017-05-12T21:39:31.199Z,5.50
2017-05-12T21:41:57.886Z,5.60
2017-05-12T21:44:24.570Z,5.64
2017-05-12T21:46:51.257Z,5.94
2017-05-12T21:49:17.950Z,7.32
2017-05-12T21:51:44.649Z,6.32
2017-05-12T21:54:11.335Z,6.36
2017-05-12T21:56:38.014Z,5.58
2017-05-12T21:59:05.442Z,6.36
2017-05-12T22:01:32.146Z,6.24
2017-05-12T22:03:58.871Z,5.32
2017-05-12T22:06:25.563Z,4.62
2017-05-12T22:08:52.345Z,4.92
2017-05-12T22:11:19.066Z,4.74
2017-05-12T22:13:46.506Z,4.72
2017-05-12T22:16:13.242Z,4.76
2017-05-12T22:18:39.926Z,4.42
2017-05-12T22:21:06.627Z,4.76
2017-05-12T22:23:33.341Z,4.50
2017-05-12T22:26:00.063Z,4.76
2017-05-12T22:28:26.781Z,4.16
2017-05-12T22:30:53.513Z,4.34
2017-05-12T22:33:20.214Z,3.80
2017-05-12T22:35:46.984Z,3.76
2017-05-12T22:38:13.681Z,3.56
2017-05-12T22:40:40.394Z,4.06
2017-05-12T22:43:07.091Z,4.38
2017-05-12T22:45:33.786Z,4.62
2017-05-12T22:48:00.490Z,3.78
2017-05-12T22:50:27.202Z,4.12
2017-05-12T22:52:53.924Z,3.64
2017-05-12T22:55:20.643Z,4.30
2017-05-12T22:57:47.368Z,3.72
2017-05-12T23:00:14.078Z,3.92
2017-05-12T23:02:40.754Z,3.26
2017-05-12T23:05:07.462Z,4.28
2017-05-12T23:07:34.174Z,3.18
2017-05-12T23:10:00.861Z,3.80
2017-05-12T23:12:27.573Z,3.38
2017-05-12T23:14:54.258Z,3.84
2017-05-12T23:17:20.980Z,3.60
2017-05-12T23:19:47.666Z,3.56
2017-05-12T23:22:14.346Z,3.34
2017-05-12T23:24:41.042Z,3.98
2017-05-12T23:27:07.757Z,3.60
2017-05-12T23:29:34.473Z,3.72
2017-05-12T23:32:01.221Z,3.98
2017-05-12T23:34:27.914Z,3.52
2017-05-12T23:36:55.354Z,3.80
2017-05-12T23:39:22.062Z,4.00
2017-05-12T23:41:48.773Z,3.98
2017-05-12T23:44:15.470Z,3.28
2017-05-12T23:46:42.162Z,3.30
2017-05-12T23:49:08.853Z,2.90
2017-05-12T23:51:35.591Z,4.14
2017-05-12T23:54:02.330Z,3.36
2017-05-12T23:56:29.025Z,4.00
2017-05-12T23:58:55.714Z,3.84
